Time;durP1;ratioP1;P1;durP2;ratioP2;P2;SDS_P1;SDS_P2;PMS_P1;PMS_P2;Temp;Humidity;BMP_temperature;BMP_pressure;BME280_temperature;BME280_humidity;BME280_pressure;Samples;Min_cycle;Max_cycle;Signal;HPM_P1;HPM_P2
2023/09/09 03:49:21;;;;;;;421.23;162.40;;;;;;;17.31;100.00;101627.03;5064898;28;20788;-70
2023/09/09 03:51:46;;;;;;;391.02;160.93;;;;;;;17.66;100.00;101632.34;5061679;28;20041;-62
2023/09/09 03:54:11;;;;;;;380.77;161.55;;;;;;;17.90;100.00;101637.34;5045666;28;20075;-70
2023/09/09 03:56:37;;;;;;;462.90;156.80;;;;;;;17.97;100.00;101631.69;5044501;28;20029;-69
2023/09/09 03:59:02;;;;;;;315.05;143.32;;;;;;;17.90;100.00;101629.34;5045795;28;20120;-71
2023/09/09 04:01:29;;;;;;;527.25;144.45;;;;;;;17.84;100.00;101635.00;5048250;28;20069;-60
2023/09/09 04:03:54;;;;;;;392.60;133.05;;;;;;;17.77;100.00;101631.81;5044285;28;20533;-67
2023/09/09 04:06:20;;;;;;;413.65;125.35;;;;;;;17.66;100.00;101640.34;5044786;28;20033;-72
2023/09/09 04:08:45;;;;;;;249.05;114.20;;;;;;;17.60;100.00;101640.66;5044312;28;20376;-69
2023/09/09 04:11:11;;;;;;;209.23;110.60;;;;;;;17.54;100.00;101646.28;5043463;28;20036;-65
2023/09/09 04:13:37;;;;;;;248.55;119.25;;;;;;;17.55;100.00;101648.03;5044637;28;20018;-72
2023/09/09 04:16:03;;;;;;;244.80;123.82;;;;;;;17.50;100.00;101650.94;5063356;28;20024;-70
2023/09/09 04:18:29;;;;;;;286.67;129.57;;;;;;;17.58;100.00;101647.84;5061319;28;20021;-61
2023/09/09 04:20:54;;;;;;;264.90;122.40;;;;;;;17.60;100.00;101651.31;5042728;28;20017;-66
2023/09/09 04:23:20;;;;;;;269.25;127.88;;;;;;;17.64;100.00;101644.03;5044574;28;20021;-70
2023/09/09 04:25:45;;;;;;;242.88;117.55;;;;;;;17.60;100.00;101648.66;5049461;28;20025;-72
2023/09/09 04:28:12;;;;;;;284.00;130.10;;;;;;;17.56;100.00;101644.44;5044244;28;20355;-70
2023/09/09 04:30:41;;;;;;;278.52;130.45;;;;;;;17.48;100.00;101649.25;5042005;28;20032;-66
2023/09/09 04:33:07;;;;;;;272.38;125.35;;;;;;;17.41;100.00;101646.06;5047646;28;20025;-69
2023/09/09 04:35:33;;;;;;;280.23;128.75;;;;;;;17.39;100.00;101648.81;5042240;28;20037;-65
2023/09/09 04:37:58;;;;;;;304.23;132.57;;;;;;;17.46;100.00;101648.50;5044408;28;20049;-70
2023/09/09 04:40:23;;;;;;;288.08;128.18;;;;;;;17.41;100.00;101646.94;5043607;28;20041;-70
2023/09/09 04:42:49;;;;;;;273.00;123.95;;;;;;;17.38;100.00;101647.09;5042750;28;20537;-66
2023/09/09 04:45:14;;;;;;;276.73;125.30;;;;;;;17.37;100.00;101640.00;5045412;28;20033;-59
2023/09/09 04:47:40;;;;;;;291.75;128.52;;;;;;;17.38;100.00;101647.09;5044570;28;20043;-69
2023/09/09 19:50:33;;;;;;;18.98;12.30;;;;;;;23.46;100.00;101752.81;5124611;27;20934;-68
2023/09/09 19:52:59;;;;;;;21.92;12.13;;;;;;;23.55;100.00;101753.06;5110671;27;20036;-65
2023/09/09 19:55:26;;;;;;;18.02;13.00;;;;;;;23.68;100.00;101747.63;5105296;28;20070;-67
2023/09/09 19:57:51;;;;;;;18.73;12.88;;;;;;;23.82;100.00;101752.81;5107364;28;20031;-68
2023/09/09 20:00:16;;;;;;;20.58;13.27;;;;;;;23.87;100.00;101752.44;5126022;28;20023;-64
2023/09/09 20:02:42;;;;;;;18.00;13.75;;;;;;;23.89;100.00;101747.81;5124660;27;20023;-62
2023/09/09 20:05:08;;;;;;;17.33;12.35;;;;;;;23.90;100.00;101749.53;5125342;27;20023;-65
2023/09/09 20:07:34;;;;;;;20.40;13.82;;;;;;;23.89;100.00;101753.19;5125916;27;20034;-65
2023/09/09 20:10:10;;;;;;;19.38;12.90;;;;;;;23.90;100.00;101752.22;5125613;27;20481;-61
2023/09/09 20:12:35;;;;;;;25.08;14.30;;;;;;;23.94;100.00;101758.22;5125388;27;20026;-63
2023/09/09 20:15:00;;;;;;;23.95;13.50;;;;;;;23.93;100.00;101753.84;5125557;27;20385;-59
2023/09/09 20:17:26;;;;;;;23.42;14.35;;;;;;;23.84;100.00;101755.41;5125133;28;20032;-63
2023/09/09 20:19:51;;;;;;;16.33;13.63;;;;;;;23.82;100.00;101752.81;5120302;27;20024;-64
2023/09/09 20:22:16;;;;;;;25.52;15.35;;;;;;;23.77;100.00;101754.13;5116746;28;20473;-63
2023/09/09 20:24:42;;;;;;;21.20;15.30;;;;;;;23.75;100.00;101761.47;5111762;27;20023;-61
2023/09/09 20:27:07;;;;;;;20.17;15.52;;;;;;;23.70;100.00;101754.63;5125462;27;20050;-63
2023/09/09 20:29:33;;;;;;;20.17;15.23;;;;;;;23.67;100.00;101759.34;5124809;27;20070;-62
2023/09/09 20:31:58;;;;;;;27.58;15.93;;;;;;;23.63;100.00;101752.50;5124730;27;20030;-63
2023/09/09 20:34:23;;;;;;;19.08;15.93;;;;;;;23.60;100.00;101758.97;5125040;28;20043;-62
2023/09/09 20:36:49;;;;;;;27.52;17.35;;;;;;;23.58;100.00;101767.16;5125993;27;20517;-64
2023/09/09 20:39:14;;;;;;;25.38;17.38;;;;;;;23.59;100.00;101763.50;5123925;28;20583;-65
2023/09/09 20:41:40;;;;;;;29.83;17.83;;;;;;;23.58;100.00;101760.91;5118107;27;20427;-61
2023/09/09 20:44:05;;;;;;;28.63;18.75;;;;;;;23.55;100.00;101762.00;5124893;27;20027;-64
2023/09/09 20:46:30;;;;;;;23.67;16.30;;;;;;;23.53;100.00;101757.69;5113310;27;20543;-64
2023/09/09 20:48:56;;;;;;;26.27;20.20;;;;;;;23.51;100.00;101754.28;5104193;28;20405;-63
2023/09/09 20:51:21;;;;;;;27.83;17.85;;;;;;;23.47;100.00;101765.28;5116480;28;20112;-63
2023/09/09 20:53:49;;;;;;;27.75;19.65;;;;;;;23.44;100.00;101754.75;5124323;28;20016;-62
2023/09/09 20:56:14;;;;;;;29.52;19.50;;;;;;;23.44;100.00;101760.13;5124170;27;20028;-63
2023/09/09 20:58:40;;;;;;;31.73;21.83;;;;;;;23.41;100.00;101754.97;5121272;27;20705;-62
2023/09/09 21:01:05;;;;;;;30.00;22.05;;;;;;;23.41;100.00;101762.16;5096203;27;20446;-60
2023/09/09 21:03:31;;;;;;;33.45;22.58;;;;;;;23.40;100.00;101758.63;5089199;28;20054;-65
2023/09/09 21:05:56;;;;;;;27.25;21.75;;;;;;;23.36;100.00;101749.06;5089529;28;20012;-62
2023/09/09 21:08:22;;;;;;;31.70;24.65;;;;;;;23.34;100.00;101759.06;5090418;28;20024;-62
2023/09/09 21:10:51;;;;;;;25.70;22.70;;;;;;;23.35;100.00;101766.13;5089903;28;20028;-63
2023/09/09 21:13:17;;;;;;;33.78;25.60;;;;;;;23.31;100.00;101765.53;5093511;28;20016;-63
2023/09/09 21:15:43;;;;;;;28.20;24.90;;;;;;;23.28;100.00;101759.50;5089806;28;20034;-63
2023/09/09 21:18:08;;;;;;;33.42;26.60;;;;;;;23.26;100.00;101756.09;5089220;28;20016;-63
2023/09/09 21:20:33;;;;;;;32.47;26.05;;;;;;;23.25;100.00;101757.03;5088959;28;20107;-65
2023/09/09 21:23:00;;;;;;;35.33;27.15;;;;;;;23.21;100.00;101761.81;5088898;28;20032;-64
2023/09/09 21:25:28;;;;;;;33.88;27.20;;;;;;;23.19;100.00;101758.34;5092001;28;20066;-62
2023/09/09 21:27:54;;;;;;;33.13;27.42;;;;;;;23.17;100.00;101760.28;5109890;28;20034;-64
2023/09/09 21:30:20;;;;;;;32.28;25.75;;;;;;;23.16;100.00;101762.13;5108650;28;20027;-63
2023/09/09 21:32:45;;;;;;;37.42;26.88;;;;;;;23.12;100.00;101760.66;5094449;28;20031;-64
2023/09/09 21:35:11;;;;;;;35.45;26.63;;;;;;;23.11;100.00;101758.91;5089447;28;20024;-61
2023/09/09 21:37:36;;;;;;;35.55;27.13;;;;;;;23.08;100.00;101757.31;5089005;28;20111;-64
2023/09/09 21:40:01;;;;;;;34.53;26.08;;;;;;;23.07;100.00;101758.28;5090141;28;20028;-64
2023/09/09 21:42:27;;;;;;;31.27;24.60;;;;;;;23.06;100.00;101756.56;5089840;28;20039;-64
2023/09/09 21:44:52;;;;;;;29.58;25.48;;;;;;;23.02;100.00;101759.59;5090441;28;20024;-61
2023/09/09 21:47:17;;;;;;;31.17;24.95;;;;;;;23.02;100.00;101749.69;5089134;28;20909;-62
2023/09/09 21:49:43;;;;;;;32.95;23.98;;;;;;;23.00;100.00;101756.16;5088661;28;20159;-63
2023/09/09 21:52:08;;;;;;;34.13;24.42;;;;;;;22.97;100.00;101755.41;5090531;28;20032;-64
2023/09/09 21:54:33;;;;;;;29.42;22.27;;;;;;;22.98;100.00;101758.97;5090345;28;20687;-63
2023/09/09 21:56:59;;;;;;;34.97;25.15;;;;;;;22.93;100.00;101751.22;5089384;28;20051;-63
2023/09/09 21:59:24;;;;;;;31.33;23.90;;;;;;;22.93;100.00;101761.09;5088855;28;20024;-65
2023/09/09 22:01:50;;;;;;;35.60;24.15;;;;;;;22.91;100.00;101753.16;5090783;28;20059;-60
2023/09/09 22:04:15;;;;;;;32.03;23.67;;;;;;;22.89;100.00;101749.75;5092484;28;20069;-61
2023/09/09 22:06:40;;;;;;;30.40;22.73;;;;;;;22.89;100.00;101752.44;5109992;28;20080;-66
2023/09/09 22:09:06;;;;;;;27.73;22.83;;;;;;;22.86;100.00;101749.97;5110188;28;20022;-62
2023/09/09 22:11:31;;;;;;;25.15;22.20;;;;;;;22.82;100.00;101753.84;5108128;28;20030;-63
2023/09/09 22:13:56;;;;;;;25.05;21.33;;;;;;;22.57;100.00;101748.38;5104346;28;20481;-64
2023/09/09 22:16:22;;;;;;;25.13;21.08;;;;;;;22.49;100.00;101741.81;5089555;28;20040;-64
2023/09/09 22:18:47;;;;;;;31.38;21.73;;;;;;;22.46;100.00;101751.78;5087727;28;20050;-62
2023/09/09 22:21:12;;;;;;;25.52;21.05;;;;;;;22.44;100.00;101745.69;5088388;28;20036;-59
2023/09/09 22:23:38;;;;;;;25.27;19.27;;;;;;;22.44;100.00;101745.69;5087342;28;20028;-60
2023/09/09 22:26:24;;;;;;;30.02;22.20;;;;;;;22.42;100.00;101749.44;5088519;28;20027;-62
2023/09/09 22:28:50;;;;;;;27.80;22.08;;;;;;;22.37;100.00;101752.47;5092018;28;20044;-62
2023/09/09 22:31:15;;;;;;;26.48;21.17;;;;;;;22.35;100.00;101751.69;5088391;28;20032;-59
2023/09/09 22:33:41;;;;;;;30.58;22.85;;;;;;;22.34;100.00;101755.34;5087349;28;20103;-62
2023/09/09 22:36:06;;;;;;;30.05;22.63;;;;;;;22.31;100.00;101753.72;5089112;28;20024;-62
2023/09/09 22:38:32;;;;;;;25.83;21.90;;;;;;;22.31;100.00;101755.56;5088168;28;20421;-63
2023/09/09 22:40:57;;;;;;;35.40;22.52;;;;;;;22.29;100.00;101754.81;5091177;28;20020;-62
2023/09/09 22:43:23;;;;;;;26.27;21.27;;;;;;;22.26;100.00;101753.19;5089107;28;20103;-60
2023/09/09 22:45:48;;;;;;;27.55;19.60;;;;;;;22.26;100.00;101757.69;5087677;28;20386;-62
2023/09/09 22:48:14;;;;;;;23.88;19.98;;;;;;;22.22;100.00;101752.53;5087131;28;20081;-60
2023/09/09 22:50:39;;;;;;;25.05;21.50;;;;;;;22.20;100.00;101754.50;5088276;28;20020;-64
2023/09/09 22:53:05;;;;;;;23.90;21.17;;;;;;;22.20;100.00;101749.13;5089727;28;20462;-62
2023/09/09 22:55:30;;;;;;;24.63;20.40;;;;;;;22.19;100.00;101751.91;5088851;28;20028;-65
2023/09/09 22:57:55;;;;;;;24.73;20.55;;;;;;;22.16;100.00;101754.81;5088562;28;20415;-59
2023/09/09 23:00:21;;;;;;;26.13;19.77;;;;;;;22.16;100.00;101753.00;5088323;28;20028;-62
2023/09/09 23:02:46;;;;;;;22.02;19.73;;;;;;;22.17;100.00;101749.34;5104268;28;20458;-64
2023/09/09 23:05:11;;;;;;;21.48;18.42;;;;;;;22.15;100.00;101750.41;5108033;28;20076;-64
2023/09/09 23:07:37;;;;;;;22.60;19.95;;;;;;;22.16;100.00;101746.75;5108037;28;20102;-59
2023/09/09 23:10:03;;;;;;;23.30;18.30;;;;;;;22.13;100.00;101742.47;5108777;28;20426;-63
2023/09/09 23:12:28;;;;;;;19.88;17.80;;;;;;;22.15;100.00;101745.88;5106143;28;20038;-62
2023/09/09 23:14:54;;;;;;;22.33;18.58;;;;;;;22.15;100.00;101740.53;5091167;28;20028;-57
2023/09/09 23:17:19;;;;;;;21.88;17.60;;;;;;;22.19;100.00;101746.53;5087711;28;20502;-62
2023/09/09 23:19:45;;;;;;;20.85;18.65;;;;;;;22.14;100.00;101746.84;5087454;28;20413;-60
2023/09/09 23:22:10;;;;;;;26.67;19.88;;;;;;;22.09;100.00;101746.31;5087877;28;20477;-63
2023/09/09 23:24:35;;;;;;;24.15;19.45;;;;;;;22.08;100.00;101744.59;5086637;28;20709;-64
2023/09/09 23:27:02;;;;;;;24.17;19.02;;;;;;;22.08;100.00;101744.59;5090154;28;20108;-61
2023/09/09 23:29:28;;;;;;;26.08;20.15;;;;;;;22.11;100.00;101744.38;5087563;28;20074;-62
2023/09/09 23:31:53;;;;;;;22.00;19.45;;;;;;;22.07;100.00;101748.25;5086263;28;20020;-63
2023/09/09 23:34:19;;;;;;;21.05;18.80;;;;;;;22.10;100.00;101745.34;5087856;28;20102;-63
2023/09/09 23:36:44;;;;;;;22.52;18.90;;;;;;;22.06;100.00;101742.00;5087201;28;20036;-60
2023/09/09 23:39:09;;;;;;;23.50;17.77;;;;;;;22.03;100.00;101741.38;5101858;28;20034;-61
2023/09/09 23:41:35;;;;;;;19.15;17.02;;;;;;;22.05;100.00;101747.47;5108188;28;20020;-63
2023/09/09 23:44:01;;;;;;;22.08;19.20;;;;;;;22.07;100.00;101749.09;5108408;28;20024;-58
2023/09/09 23:46:28;;;;;;;21.55;18.08;;;;;;;22.01;100.00;101745.97;5095904;28;20035;-62
2023/09/09 23:48:53;;;;;;;23.77;19.02;;;;;;;21.94;100.00;101754.44;5087906;28;20048;-58
2023/09/09 23:51:19;;;;;;;23.58;19.33;;;;;;;21.91;100.00;101749.28;5087658;28;20466;-64
2023/09/09 23:53:44;;;;;;;21.40;17.80;;;;;;;21.92;100.00;101761.75;5089007;28;20400;-62
2023/09/09 23:56:09;;;;;;;21.85;18.88;;;;;;;21.88;100.00;101760.22;5089077;28;20633;-64
2023/09/09 23:58:35;;;;;;;22.02;19.48;;;;;;;21.94;100.00;101759.81;5087587;28;20028;-61
